sensor_id;sensor_type;location;lat;lon;timestamp;temperature;humidity
75517;DHT22;64097;52.548;13.406;2023-08-12T06:04:03;24.60;53.10
75517;DHT22;64097;52.548;13.406;2023-08-12T06:06:29;24.60;53.10
75517;DHT22;64097;52.548;13.406;2023-08-12T06:08:54;24.60;53.10
75517;DHT22;64097;52.548;13.406;2023-08-12T06:11:20;24.60;53.10
75517;DHT22;64097;52.548;13.406;2023-08-12T06:13:46;24.60;53.20
75517;DHT22;64097;52.548;13.406;2023-08-12T06:16:11;24.60;53.30
75517;DHT22;64097;52.548;13.406;2023-08-12T06:18:37;24.60;53.30
75517;DHT22;64097;52.548;13.406;2023-08-12T06:21:03;24.60;53.40
75517;DHT22;64097;52.548;13.406;2023-08-12T06:23:28;24.70;53.50
75517;DHT22;64097;52.548;13.406;2023-08-12T06:25:55;24.70;53.50
75517;DHT22;64097;52.548;13.406;2023-08-12T06:28:21;24.70;53.50
75517;DHT22;64097;52.548;13.406;2023-08-12T06:30:47;24.70;53.40
75517;DHT22;64097;52.548;13.406;2023-08-12T06:33:14;24.80;53.30
75517;DHT22;64097;52.548;13.406;2023-08-12T06:35:41;24.80;53.30
75517;DHT22;64097;52.548;13.406;2023-08-12T06:38:07;24.80;53.30
75517;DHT22;64097;52.548;13.406;2023-08-12T06:40:35;24.90;53.30
75517;DHT22;64097;52.548;13.406;2023-08-12T06:43:01;24.90;53.20
75517;DHT22;64097;52.548;13.406;2023-08-12T06:45:27;25.00;53.30
75517;DHT22;64097;52.548;13.406;2023-08-12T06:47:52;25.00;53.20
75517;DHT22;64097;52.548;13.406;2023-08-12T06:50:18;25.00;53.10
75517;DHT22;64097;52.548;13.406;2023-08-12T06:52:44;25.00;53.10
75517;DHT22;64097;52.548;13.406;2023-08-12T06:55:09;25.10;53.90
75517;DHT22;64097;52.548;13.406;2023-08-12T06:57:35;25.10;53.10
75517;DHT22;64097;52.548;13.406;2023-08-12T07:00:01;25.10;53.10
75517;DHT22;64097;52.548;13.406;2023-08-12T07:02:27;25.10;53.10
75517;DHT22;64097;52.548;13.406;2023-08-12T07:04:52;25.20;53.10
75517;DHT22;64097;52.548;13.406;2023-08-12T07:07:18;25.20;53.00
75517;DHT22;64097;52.548;13.406;2023-08-12T07:09:44;25.30;53.10
75517;DHT22;64097;52.548;13.406;2023-08-12T07:12:09;25.30;53.00
75517;DHT22;64097;52.548;13.406;2023-08-12T07:14:35;25.30;52.90
75517;DHT22;64097;52.548;13.406;2023-08-12T07:17:01;25.30;52.90
75517;DHT22;64097;52.548;13.406;2023-08-12T07:19:27;25.40;53.00
75517;DHT22;64097;52.548;13.406;2023-08-12T07:21:52;25.40;52.90
75517;DHT22;64097;52.548;13.406;2023-08-12T07:24:18;25.50;52.90
75517;DHT22;64097;52.548;13.406;2023-08-12T07:26:44;25.50;52.80
75517;DHT22;64097;52.548;13.406;2023-08-12T07:29:09;25.50;52.70
75517;DHT22;64097;52.548;13.406;2023-08-12T07:31:35;25.50;52.70
75517;DHT22;64097;52.548;13.406;2023-08-12T07:34:01;25.60;52.80
75517;DHT22;64097;52.548;13.406;2023-08-12T07:36:27;25.60;52.90
75517;DHT22;64097;52.548;13.406;2023-08-12T07:38:53;25.60;52.90
75517;DHT22;64097;52.548;13.406;2023-08-12T07:41:18;25.70;52.90
75517;DHT22;64097;52.548;13.406;2023-08-12T07:43:44;25.70;52.80
75517;DHT22;64097;52.548;13.406;2023-08-12T07:46:10;25.80;52.70
75517;DHT22;64097;52.548;13.406;2023-08-12T07:48:35;25.80;52.70
75517;DHT22;64097;52.548;13.406;2023-08-12T07:51:01;25.90;52.70
75517;DHT22;64097;52.548;13.406;2023-08-12T07:53:27;26.00;52.50
75517;DHT22;64097;52.548;13.406;2023-08-12T07:55:53;26.00;52.30
75517;DHT22;64097;52.548;13.406;2023-08-12T07:58:19;26.00;52.30
75517;DHT22;64097;52.548;13.406;2023-08-12T08:00:44;26.10;53.10
75517;DHT22;64097;52.548;13.406;2023-08-12T08:03:10;26.10;52.20
75517;DHT22;64097;52.548;13.406;2023-08-12T08:05:40;26.20;52.20
75517;DHT22;64097;52.548;13.406;2023-08-12T08:08:06;26.20;52.20
75517;DHT22;64097;52.548;13.406;2023-08-12T08:10:33;26.30;52.30
75517;DHT22;64097;52.548;13.406;2023-08-12T08:12:58;26.30;52.10
75517;DHT22;64097;52.548;13.406;2023-08-12T08:15:24;26.30;52.00
75517;DHT22;64097;52.548;13.406;2023-08-12T08:17:50;26.30;52.00
75517;DHT22;64097;52.548;13.406;2023-08-12T08:20:15;26.30;52.10
75517;DHT22;64097;52.548;13.406;2023-08-12T08:22:41;26.30;52.00
75517;DHT22;64097;52.548;13.406;2023-08-12T08:25:07;26.30;52.00
75517;DHT22;64097;52.548;13.406;2023-08-12T08:27:33;26.30;52.10
75517;DHT22;64097;52.548;13.406;2023-08-12T08:29:58;26.40;52.30
75517;DHT22;64097;52.548;13.406;2023-08-12T08:32:24;26.40;52.30
75517;DHT22;64097;52.548;13.406;2023-08-12T08:34:50;26.40;52.30
75517;DHT22;64097;52.548;13.406;2023-08-12T08:37:16;26.30;52.20
75517;DHT22;64097;52.548;13.406;2023-08-12T08:39:41;26.40;52.30
75517;DHT22;64097;52.548;13.406;2023-08-12T08:42:08;26.30;52.20
75517;DHT22;64097;52.548;13.406;2023-08-12T08:44:36;26.30;52.30
75517;DHT22;64097;52.548;13.406;2023-08-12T08:47:06;26.30;52.30
75517;DHT22;64097;52.548;13.406;2023-08-12T08:49:32;26.30;52.40
75517;DHT22;64097;52.548;13.406;2023-08-12T08:52:00;26.30;52.40
75517;DHT22;64097;52.548;13.406;2023-08-12T08:54:27;26.30;52.50
75517;DHT22;64097;52.548;13.406;2023-08-12T08:56:52;26.30;52.70
75517;DHT22;64097;52.548;13.406;2023-08-12T08:59:18;26.30;52.80
75517;DHT22;64097;52.548;13.406;2023-08-12T09:01:45;26.30;52.90
75517;DHT22;64097;52.548;13.406;2023-08-12T09:04:13;26.30;53.10
75517;DHT22;64097;52.548;13.406;2023-08-12T09:06:41;26.30;53.20
75517;DHT22;64097;52.548;13.406;2023-08-12T09:09:10;26.30;53.50
75517;DHT22;64097;52.548;13.406;2023-08-12T09:11:41;26.30;53.50
75517;DHT22;64097;52.548;13.406;2023-08-12T09:14:07;26.30;53.50
75517;DHT22;64097;52.548;13.406;2023-08-12T09:16:34;26.40;53.70
75517;DHT22;64097;52.548;13.406;2023-08-12T09:18:59;26.40;53.70
75517;DHT22;64097;52.548;13.406;2023-08-12T09:21:25;26.40;53.70
75517;DHT22;64097;52.548;13.406;2023-08-12T09:23:51;26.40;53.60
75517;DHT22;64097;52.548;13.406;2023-08-12T09:26:21;26.40;53.50
75517;DHT22;64097;52.548;13.406;2023-08-12T09:28:47;26.50;53.60
75517;DHT22;64097;52.548;13.406;2023-08-12T09:31:30;26.50;53.50
75517;DHT22;64097;52.548;13.406;2023-08-12T09:34:05;26.50;53.40
75517;DHT22;64097;52.548;13.406;2023-08-12T09:36:34;26.60;53.50
75517;DHT22;64097;52.548;13.406;2023-08-12T09:39:00;26.60;53.60
75517;DHT22;64097;52.548;13.406;2023-08-12T09:41:28;26.70;53.70
75517;DHT22;64097;52.548;13.406;2023-08-12T09:43:55;26.80;53.60
75517;DHT22;64097;52.548;13.406;2023-08-12T09:46:22;26.90;53.50
75517;DHT22;64097;52.548;13.406;2023-08-12T09:48:52;26.90;53.30
75517;DHT22;64097;52.548;13.406;2023-08-12T09:51:19;26.90;53.20
75517;DHT22;64097;52.548;13.406;2023-08-12T09:53:48;26.90;53.00
75517;DHT22;64097;52.548;13.406;2023-08-12T09:56:18;27.00;53.00
75517;DHT22;64097;52.548;13.406;2023-08-12T09:58:48;27.00;53.00
75517;DHT22;64097;52.548;13.406;2023-08-12T10:01:18;27.00;52.90
75517;DHT22;64097;52.548;13.406;2023-08-12T10:03:44;27.10;53.10
75517;DHT22;64097;52.548;13.406;2023-08-12T10:06:11;27.10;52.90
75517;DHT22;64097;52.548;13.406;2023-08-12T10:08:37;27.10;52.90
75517;DHT22;64097;52.548;13.406;2023-08-12T10:11:03;27.20;53.10
75517;DHT22;64097;52.548;13.406;2023-08-12T10:13:29;27.20;53.00
75517;DHT22;64097;52.548;13.406;2023-08-12T10:15:55;27.30;53.10
75517;DHT22;64097;52.548;13.406;2023-08-12T10:18:22;27.30;53.00
75517;DHT22;64097;52.548;13.406;2023-08-12T10:20:50;27.30;53.10
75517;DHT22;64097;52.548;13.406;2023-08-12T10:23:17;27.40;53.10
75517;DHT22;64097;52.548;13.406;2023-08-12T10:25:45;27.30;53.10
75517;DHT22;64097;52.548;13.406;2023-08-12T10:28:12;27.40;53.10
75517;DHT22;64097;52.548;13.406;2023-08-12T10:30:40;27.40;53.10
75517;DHT22;64097;52.548;13.406;2023-08-12T10:33:08;27.40;53.10
75517;DHT22;64097;52.548;13.406;2023-08-12T10:35:47;27.40;53.10
75517;DHT22;64097;52.548;13.406;2023-08-12T10:38:16;27.40;53.00
75517;DHT22;64097;52.548;13.406;2023-08-12T10:40:42;27.50;53.10
75517;DHT22;64097;52.548;13.406;2023-08-12T10:43:08;27.50;53.00
75517;DHT22;64097;52.548;13.406;2023-08-12T10:45:47;27.50;53.10
75517;DHT22;64097;52.548;13.406;2023-08-12T10:50:49;27.60;53.00
75517;DHT22;64097;52.548;13.406;2023-08-12T10:53:31;27.70;53.10
75517;DHT22;64097;52.548;13.406;2023-08-12T10:56:04;27.70;53.10
75517;DHT22;64097;52.548;13.406;2023-08-12T10:58:46;27.80;53.00
75517;DHT22;64097;52.548;13.406;2023-08-12T11:01:23;27.80;53.10
75517;DHT22;64097;52.548;13.406;2023-08-12T11:03:49;27.90;53.00
75517;DHT22;64097;52.548;13.406;2023-08-12T11:06:15;28.00;53.00
75517;DHT22;64097;52.548;13.406;2023-08-12T11:08:53;28.00;52.90
75517;DHT22;64097;52.548;13.406;2023-08-12T11:11:23;28.00;52.90
75517;DHT22;64097;52.548;13.406;2023-08-12T11:13:58;28.10;53.00
75517;DHT22;64097;52.548;13.406;2023-08-12T11:16:37;28.10;52.90
75517;DHT22;64097;52.548;13.406;2023-08-12T11:19:04;28.10;52.90
75517;DHT22;64097;52.548;13.406;2023-08-12T11:21:30;28.10;52.90
75517;DHT22;64097;52.548;13.406;2023-08-12T11:23:56;28.20;53.00
75517;DHT22;64097;52.548;13.406;2023-08-12T11:26:24;28.20;53.00
75517;DHT22;64097;52.548;13.406;2023-08-12T11:28:50;28.30;53.20
75517;DHT22;64097;52.548;13.406;2023-08-12T11:31:19;28.30;53.30
75517;DHT22;64097;52.548;13.406;2023-08-12T11:33:44;28.30;53.20
75517;DHT22;64097;52.548;13.406;2023-08-12T11:36:10;28.40;53.00
75517;DHT22;64097;52.548;13.406;2023-08-12T11:38:37;28.40;52.70
75517;DHT22;64097;52.548;13.406;2023-08-12T11:41:03;28.50;52.60
75517;DHT22;64097;52.548;13.406;2023-08-12T11:43:29;28.40;52.50
75517;DHT22;64097;52.548;13.406;2023-08-12T11:45:58;28.50;52.40
75517;DHT22;64097;52.548;13.406;2023-08-12T11:48:24;28.50;52.40
75517;DHT22;64097;52.548;13.406;2023-08-12T11:50:50;28.50;52.30
75517;DHT22;64097;52.548;13.406;2023-08-12T11:53:16;28.50;52.20
75517;DHT22;64097;52.548;13.406;2023-08-12T11:55:42;28.50;52.30
75517;DHT22;64097;52.548;13.406;2023-08-12T11:58:09;28.50;52.20
75517;DHT22;64097;52.548;13.406;2023-08-12T12:00:34;28.40;52.10
75517;DHT22;64097;52.548;13.406;2023-08-12T12:03:00;28.40;52.10
75517;DHT22;64097;52.548;13.406;2023-08-12T12:05:29;28.40;52.20
75517;DHT22;64097;52.548;13.406;2023-08-12T12:07:55;28.40;52.30
75517;DHT22;64097;52.548;13.406;2023-08-12T12:10:27;28.40;52.40
75517;DHT22;64097;52.548;13.406;2023-08-12T12:12:55;28.40;52.30
75517;DHT22;64097;52.548;13.406;2023-08-12T12:15:21;28.50;52.40
75517;DHT22;64097;52.548;13.406;2023-08-12T12:17:50;28.40;52.50
75517;DHT22;64097;52.548;13.406;2023-08-12T12:20:16;28.50;53.10
75517;DHT22;64097;52.548;13.406;2023-08-12T12:22:44;28.50;53.40
75517;DHT22;64097;52.548;13.406;2023-08-12T12:25:12;28.50;53.40
75517;DHT22;64097;52.548;13.406;2023-08-12T12:27:39;28.50;53.20
75517;DHT22;64097;52.548;13.406;2023-08-12T12:30:08;28.60;53.30
75517;DHT22;64097;52.548;13.406;2023-08-12T12:32:35;28.60;53.20
75517;DHT22;64097;52.548;13.406;2023-08-12T12:35:00;28.60;53.10
75517;DHT22;64097;52.548;13.406;2023-08-12T12:37:26;28.60;53.10
75517;DHT22;64097;52.548;13.406;2023-08-12T12:39:52;28.60;53.10
75517;DHT22;64097;52.548;13.406;2023-08-12T12:42:18;28.60;53.10
75517;DHT22;64097;52.548;13.406;2023-08-12T12:44:44;28.50;53.10
75517;DHT22;64097;52.548;13.406;2023-08-12T12:47:10;28.50;53.00
75517;DHT22;64097;52.548;13.406;2023-08-12T12:49:38;28.50;52.90
75517;DHT22;64097;52.548;13.406;2023-08-12T12:52:04;28.50;52.90
75517;DHT22;64097;52.548;13.406;2023-08-12T12:54:30;28.50;52.80
75517;DHT22;64097;52.548;13.406;2023-08-12T12:56:56;28.50;52.80
75517;DHT22;64097;52.548;13.406;2023-08-12T12:59:22;28.50;52.70
75517;DHT22;64097;52.548;13.406;2023-08-12T13:01:48;28.50;52.60
75517;DHT22;64097;52.548;13.406;2023-08-12T13:04:14;28.60;52.70
75517;DHT22;64097;52.548;13.406;2023-08-12T13:06:40;28.60;52.60
75517;DHT22;64097;52.548;13.406;2023-08-12T13:09:05;28.60;52.40
75517;DHT22;64097;52.548;13.406;2023-08-12T13:11:33;28.60;52.30
75517;DHT22;64097;52.548;13.406;2023-08-12T13:14:05;28.70;52.30
75517;DHT22;64097;52.548;13.406;2023-08-12T13:16:31;28.70;52.20
75517;DHT22;64097;52.548;13.406;2023-08-12T13:18:57;28.80;52.30
75517;DHT22;64097;52.548;13.406;2023-08-12T13:21:24;28.80;52.90
75517;DHT22;64097;52.548;13.406;2023-08-12T13:23:50;28.90;52.30
75517;DHT22;64097;52.548;13.406;2023-08-12T13:26:16;28.90;52.20
75517;DHT22;64097;52.548;13.406;2023-08-12T13:28:42;29.00;52.40
75517;DHT22;64097;52.548;13.406;2023-08-12T13:31:08;29.00;52.10
75517;DHT22;64097;52.548;13.406;2023-08-12T13:33:34;29.10;52.10
75517;DHT22;64097;52.548;13.406;2023-08-12T13:35:59;29.10;52.00
75517;DHT22;64097;52.548;13.406;2023-08-12T13:38:25;29.10;52.00
75517;DHT22;64097;52.548;13.406;2023-08-12T13:40:51;29.10;52.10
75517;DHT22;64097;52.548;13.406;2023-08-12T13:43:17;29.20;52.00
75517;DHT22;64097;52.548;13.406;2023-08-12T13:45:42;29.20;52.10
75517;DHT22;64097;52.548;13.406;2023-08-12T13:48:08;29.30;52.10
75517;DHT22;64097;52.548;13.406;2023-08-12T13:50:33;29.30;51.90
75517;DHT22;64097;52.548;13.406;2023-08-12T13:52:59;29.30;51.80
75517;DHT22;64097;52.548;13.406;2023-08-12T13:55:25;29.40;51.90
75517;DHT22;64097;52.548;13.406;2023-08-12T13:57:51;29.40;51.90
